Herent, Belgium
Current Conditions -  °F | °C
As of 7:20 PM on Saturday 20 Dec 2014 (Local Time) from EBBR Reporting Station
Rain Showers Rain Showers  
Wind Chill: 38°   Ceiling: 4900
Heat Index: 45°   Visibility: 6mi
Dew Point: 37°   Wind: 13mph
Humidity: 76%   Direction: 270°W
Pressure: 30.3"   Gusts: NA
Location:  50.91°N, 4.67°E
Report Text: EBBR 201820Z 27011KT 9999 -SHRA FEW011 SCT026 BKN049 07/03 Q1026 NOSIG
Loading
Personal Weather Stations






























Interactive Weather Map New forecast layout! Learn more

10-Day Weather Forecast

Advertisements
Track Severe Weather on mobile